Roches Point, Ireland

8:17 PM IST on September 21, 2014 (GMT +0100)
Cobh - Riverside | Change Station
CLOSE
Current Station
Personal Weather Station
Location: Cork, CORK
Elevation: 69 ft
Nearby Weather Stations

Elev 69 ft 51.86 °N, 8.32 °W | Updated 7 minutes ago

Scattered Clouds
Scattered Clouds
57.4 °F
Feels Like 57.4 °F
N
0.7
Wind Variable Wind from NE
Gusts 1.6 mph

Today
High -- | Low -- °F
--% Chance of Precip.
Yesterday
High -- | Low -- °F
Precip. -- in
7:17 AM 7:34 PM
Waning Crescent, 6% visible
Pressure 30.30 in
Visibility 6.2 miles
Clouds Few 1700 ft
Scattered Clouds 4200 ft
Dew Point 49 °F
Humidity 73%
Rainfall 0.00 in
Snow Depth Not available.
UV 0 out of 12
Pollen Not available.
Air Quality Not available.
Flu Activity Not available.
METAR EICK 211900Z 12006KT 9999 FEW017 SCT042 12/11 Q1026 NOSIG

More Conditions Fewer Conditions

Pressure 30.30 in
Visibility 6.2 miles
Clouds Few 1700 ft
Scattered Clouds 4200 ft
Dew Point 49 °F
Humidity 73%
Rainfall 0.00 in
Snow Depth Not available.
UV 0 out of 12
Pollen Not available.
Air Quality Not available.
Flu Activity Not available.
METAR EICK 211900Z 12006KT 9999 FEW017 SCT042 12/11 Q1026 NOSIG

More Conditions Fewer Conditions

10-Day Weather Forecast

Almanac

Astronomy

Sep. 21, 2014 Rise Set
Actual Time 7:17 AM IST 7:34 PM IST
Civil Twilight 6:43 AM IST 8:07 PM IST
Nautical Twilight 6:03 AM IST 8:47 PM IST
Astronomical Twilight 5:21 AM IST 9:28 PM IST
Moon 4:23 AM IST 6:14 PM IST
Length of Visible Light 13h 24m
Length of Day
12h 16m
Tomorrow will be 3m 57s shorter.
Waning Crescent, 6% of the Moon is Illuminated
Today
Waning Crescent
Sep 24
New
Oct 1
First Quarter
Oct 8
Full
Oct 15
Last Quarter

Today's Extremes

Country Highs Country Lows

Community

WunderPhotos

Upload Photos

1,755,226 photos uploaded!

Nearby

Snow Depth

Not available.

Earthquake Activity

City Distance Mag. Time & Date
No recent earthquake activity has been reported nearby.
Minimum magnitude displayed is 2.5.

Coastal Water Temperatures

Place Temperature
No Stations Reporting

Nearby Weather Stations